createdAt,value
2019-03-15T00:00:05.357Z,8.44
2019-03-15T00:01:05.936Z,8.38
2019-03-15T00:02:05.791Z,8.38
2019-03-15T00:03:05.747Z,8.31
2019-03-15T00:04:05.476Z,8.38
2019-03-15T00:05:05.523Z,8.38
2019-03-15T00:06:06.102Z,8.25
2019-03-15T00:07:05.296Z,8.38
2019-03-15T00:08:06.377Z,8.38
2019-03-15T00:09:06.018Z,8.25
2019-03-15T00:10:05.287Z,8.25
2019-03-15T00:11:06.009Z,8.31
2019-03-15T00:12:05.537Z,8.25
2019-03-15T00:13:05.614Z,8.31
2019-03-15T00:14:05.204Z,8.25
2019-03-15T00:15:05.749Z,8.31
2019-03-15T00:16:05.930Z,8.44
2019-03-15T00:17:05.120Z,8.31
2019-03-15T00:18:05.843Z,8.38
2019-03-15T00:19:05.442Z,8.25
2019-03-15T00:20:05.645Z,8.12
2019-03-15T00:21:06.090Z,8.19
2019-03-15T00:22:05.259Z,8.19
2019-03-15T00:23:05.541Z,8.44
2019-03-15T00:24:05.444Z,8.50
2019-03-15T00:25:05.132Z,8.38
2019-03-15T00:26:05.049Z,8.38
2019-03-15T00:27:05.803Z,8.44
2019-03-15T00:28:05.929Z,8.38
2019-03-15T00:29:05.623Z,8.31
2019-03-15T00:30:06.667Z,8.31
2019-03-15T00:31:05.990Z,8.25
2019-03-15T00:32:05.606Z,8.31
2019-03-15T00:33:05.762Z,8.19
2019-03-15T00:34:05.837Z,8.06
2019-03-15T00:35:05.435Z,7.94
2019-03-15T00:36:05.535Z,7.88
2019-03-15T00:37:05.302Z,7.88
2019-03-15T00:38:05.408Z,7.81
2019-03-15T00:39:05.438Z,7.81
2019-03-15T00:40:05.631Z,7.81
2019-03-15T00:41:05.667Z,7.88
2019-03-15T00:42:05.515Z,7.88
2019-03-15T00:43:05.855Z,7.81
2019-03-15T00:44:05.365Z,7.75
2019-03-15T00:45:08.103Z,7.75
2019-03-15T00:46:05.139Z,7.75
2019-03-15T00:47:05.515Z,7.75
2019-03-15T00:48:06.095Z,7.75
2019-03-15T00:49:05.442Z,7.75
2019-03-15T00:50:05.220Z,7.69
2019-03-15T00:51:05.337Z,7.69
2019-03-15T00:52:05.787Z,7.69
2019-03-15T00:53:05.908Z,7.69
2019-03-15T00:54:05.345Z,7.69
2019-03-15T00:55:05.712Z,7.75
2019-03-15T00:56:05.787Z,7.69
2019-03-15T00:57:05.765Z,7.69
2019-03-15T00:58:05.036Z,7.69
2019-03-15T00:59:05.701Z,7.69
2019-03-15T01:00:05.844Z,7.69
2019-03-15T01:01:05.117Z,7.69
2019-03-15T01:02:05.852Z,7.62
2019-03-15T01:03:05.452Z,7.62
2019-03-15T01:04:09.123Z,7.62
2019-03-15T01:05:05.686Z,7.62
2019-03-15T01:06:05.859Z,7.62
2019-03-15T01:07:06.017Z,7.69
2019-03-15T01:08:05.137Z,7.62
2019-03-15T01:09:05.272Z,7.62
2019-03-15T01:10:05.955Z,7.56
2019-03-15T01:11:06.086Z,7.56
2019-03-15T01:12:05.521Z,7.56
2019-03-15T01:13:05.854Z,7.56
2019-03-15T01:14:05.843Z,7.56
2019-03-15T01:15:05.468Z,7.56
2019-03-15T01:16:05.358Z,7.56
2019-03-15T01:17:05.294Z,7.56
2019-03-15T01:18:05.446Z,7.56
2019-03-15T01:19:06.179Z,7.56
2019-03-15T01:20:05.309Z,7.56
2019-03-15T01:21:05.354Z,7.56
2019-03-15T01:22:05.451Z,7.50
2019-03-15T01:23:05.608Z,7.50
2019-03-15T01:24:05.532Z,7.50
2019-03-15T01:25:05.214Z,7.50
2019-03-15T01:26:05.184Z,7.50
2019-03-15T01:27:05.397Z,7.50
2019-03-15T01:28:05.525Z,7.50
2019-03-15T01:29:05.114Z,7.56
2019-03-15T01:30:05.760Z,7.50
2019-03-15T01:31:06.010Z,7.50
2019-03-15T01:32:05.211Z,7.50
2019-03-15T01:33:05.767Z,7.50
2019-03-15T01:34:05.116Z,7.56
2019-03-15T01:35:05.276Z,7.56
2019-03-15T01:36:05.554Z,7.56
2019-03-15T01:37:05.608Z,7.62
2019-03-15T01:38:05.537Z,7.69
2019-03-15T01:39:05.040Z,7.69
2019-03-15T01:40:05.286Z,7.69
2019-03-15T01:41:05.669Z,7.69
2019-03-15T01:42:05.939Z,7.69
2019-03-15T01:43:05.521Z,7.69
2019-03-15T01:44:05.858Z,7.69
2019-03-15T01:45:05.836Z,7.69
2019-03-15T01:46:05.544Z,7.69
2019-03-15T01:47:05.525Z,7.69
2019-03-15T01:48:05.847Z,7.69
2019-03-15T01:49:05.124Z,7.69
2019-03-15T01:50:05.211Z,7.69
2019-03-15T01:51:05.760Z,7.69
2019-03-15T01:52:06.107Z,7.69
2019-03-15T01:53:05.108Z,7.75
2019-03-15T01:54:05.691Z,7.75
2019-03-15T01:55:05.684Z,7.75
2019-03-15T01:56:05.935Z,7.75
2019-03-15T01:57:05.921Z,7.75
2019-03-15T01:58:05.213Z,7.75
2019-03-15T01:59:05.372Z,7.75
2019-03-15T02:00:05.201Z,7.75
2019-03-15T02:01:05.372Z,7.81
2019-03-15T02:02:05.997Z,7.75
2019-03-15T02:03:05.703Z,7.81
2019-03-15T02:04:05.942Z,7.81
2019-03-15T02:05:05.356Z,7.81
2019-03-15T02:06:05.917Z,7.75
2019-03-15T02:07:05.187Z,7.75
2019-03-15T02:08:05.321Z,7.75
2019-03-15T02:09:08.858Z,7.75
2019-03-15T02:10:05.204Z,7.75
2019-03-15T02:11:05.815Z,7.75
2019-03-15T02:12:05.364Z,7.81
2019-03-15T02:13:06.078Z,7.81
2019-03-15T02:14:05.364Z,7.75
2019-03-15T02:15:05.599Z,7.75
2019-03-15T02:16:05.763Z,7.75
2019-03-15T02:17:05.122Z,7.75
2019-03-15T02:18:05.452Z,7.75
2019-03-15T02:19:05.381Z,7.75
2019-03-15T02:20:08.623Z,7.75
2019-03-15T02:21:05.230Z,7.75
2019-03-15T02:22:05.203Z,7.69
2019-03-15T02:23:05.928Z,7.69
2019-03-15T02:24:06.094Z,7.75
2019-03-15T02:25:05.288Z,7.75
2019-03-15T02:26:05.102Z,7.69
2019-03-15T02:27:05.932Z,7.69
2019-03-15T02:28:06.172Z,7.69
2019-03-15T02:29:05.134Z,7.62
2019-03-15T02:30:05.604Z,7.62
2019-03-15T02:31:05.709Z,7.62
2019-03-15T02:32:05.211Z,7.62
2019-03-15T02:33:06.156Z,7.62
2019-03-15T02:34:05.850Z,7.62
2019-03-15T02:35:06.017Z,7.62
2019-03-15T02:36:05.234Z,7.62
2019-03-15T02:37:06.939Z,7.69
2019-03-15T02:38:06.008Z,7.69
2019-03-15T02:39:05.444Z,7.69
2019-03-15T02:40:05.914Z,7.69
2019-03-15T02:41:06.110Z,7.69
2019-03-15T02:42:05.129Z,7.69
2019-03-15T02:43:05.470Z,7.69
2019-03-15T02:44:05.515Z,7.69
2019-03-15T02:45:06.162Z,7.69
2019-03-15T02:46:05.967Z,7.62
2019-03-15T02:47:06.184Z,7.62
2019-03-15T02:48:05.604Z,7.69
2019-03-15T02:49:05.778Z,7.69
2019-03-15T02:50:05.911Z,7.69
2019-03-15T02:51:05.367Z,7.69
2019-03-15T02:52:05.279Z,7.69
2019-03-15T02:53:05.778Z,7.69
2019-03-15T02:54:05.930Z,7.69
2019-03-15T02:55:05.209Z,7.69
2019-03-15T02:56:05.603Z,7.69
2019-03-15T02:57:05.925Z,7.75
2019-03-15T02:58:05.107Z,7.75
2019-03-15T02:59:05.382Z,7.75
2019-03-15T03:00:05.651Z,7.75
2019-03-15T03:01:05.763Z,7.75
2019-03-15T03:02:05.684Z,7.75
2019-03-15T03:03:05.222Z,7.75
2019-03-15T03:04:05.963Z,7.81
2019-03-15T03:05:05.881Z,7.75
2019-03-15T03:06:05.700Z,7.75
2019-03-15T03:07:05.686Z,7.75
2019-03-15T03:08:05.764Z,7.75
2019-03-15T03:09:05.831Z,7.75
2019-03-15T03:10:06.168Z,7.69
2019-03-15T03:11:05.453Z,7.69
2019-03-15T03:12:05.609Z,7.69
2019-03-15T03:13:05.041Z,7.69
2019-03-15T03:14:05.244Z,7.69
2019-03-15T03:15:05.353Z,7.75
2019-03-15T03:16:05.450Z,7.75
2019-03-15T03:17:05.613Z,7.69
2019-03-15T03:18:07.176Z,7.69
2019-03-15T03:19:05.274Z,7.75
2019-03-15T03:20:06.072Z,7.75
2019-03-15T03:21:05.118Z,7.75
2019-03-15T03:22:05.768Z,7.75
2019-03-15T03:23:05.683Z,7.75
2019-03-15T03:24:05.210Z,7.81
2019-03-15T03:25:05.127Z,7.81
2019-03-15T03:26:05.678Z,7.81
2019-03-15T03:27:07.321Z,7.81
2019-03-15T03:28:05.878Z,7.81
2019-03-15T03:29:06.098Z,7.81
2019-03-15T03:30:05.222Z,7.88
2019-03-15T03:31:05.919Z,7.88
2019-03-15T03:32:06.098Z,7.88
2019-03-15T03:33:05.776Z,7.88
2019-03-15T03:34:05.840Z,7.88
2019-03-15T03:35:05.275Z,7.88
2019-03-15T03:36:06.102Z,7.88
2019-03-15T03:37:05.121Z,7.88
2019-03-15T03:38:05.867Z,7.88
2019-03-15T03:39:06.482Z,7.88
2019-03-15T03:40:06.009Z,7.88
2019-03-15T03:41:05.698Z,7.88
2019-03-15T03:42:05.700Z,7.88
2019-03-15T03:43:05.939Z,7.81
2019-03-15T03:44:05.694Z,7.81
2019-03-15T03:45:05.116Z,7.81
2019-03-15T03:46:05.213Z,7.81
2019-03-15T03:47:05.784Z,8.12
2019-03-15T03:48:05.143Z,8.50
2019-03-15T03:49:05.775Z,8.62
2019-03-15T03:50:06.090Z,8.50
2019-03-15T03:51:05.593Z,8.50
2019-03-15T03:52:05.153Z,8.44
2019-03-15T03:53:05.605Z,8.50
2019-03-15T03:54:05.771Z,8.50
2019-03-15T03:55:05.365Z,8.50
2019-03-15T03:56:05.701Z,8.56
2019-03-15T03:57:05.289Z,8.56
2019-03-15T03:58:05.475Z,8.56
2019-03-15T03:59:05.356Z,8.50
2019-03-15T04:00:05.987Z,8.50
2019-03-15T04:01:07.498Z,8.50
2019-03-15T04:02:05.225Z,8.44
2019-03-15T04:03:05.277Z,8.44
2019-03-15T04:04:05.854Z,8.44
2019-03-15T04:05:05.987Z,8.38
2019-03-15T04:06:05.445Z,8.44
2019-03-15T04:07:05.930Z,8.44
2019-03-15T04:08:05.381Z,8.44
2019-03-15T04:09:05.458Z,8.44
2019-03-15T04:10:05.625Z,8.44
2019-03-15T04:11:05.588Z,8.44
2019-03-15T04:12:05.694Z,8.38
2019-03-15T04:13:05.205Z,8.44
2019-03-15T04:14:05.214Z,8.50
2019-03-15T04:15:05.843Z,8.50
2019-03-15T04:16:05.137Z,8.50
2019-03-15T04:17:05.262Z,8.56
2019-03-15T04:18:06.713Z,8.50
2019-03-15T04:19:05.428Z,8.62
2019-03-15T04:20:05.220Z,8.56
2019-03-15T04:21:05.198Z,8.56
2019-03-15T04:22:05.377Z,8.56
2019-03-15T04:23:05.604Z,8.62
2019-03-15T04:24:05.728Z,8.62
2019-03-15T04:25:07.153Z,8.56
2019-03-15T04:26:06.092Z,8.56
2019-03-15T04:27:05.596Z,8.56
2019-03-15T04:28:05.529Z,8.56
2019-03-15T04:29:05.688Z,8.62
2019-03-15T04:30:08.608Z,8.62
2019-03-15T04:31:05.640Z,8.62
2019-03-15T04:32:05.910Z,8.62
2019-03-15T04:33:05.290Z,8.62
2019-03-15T04:34:05.542Z,8.62
2019-03-15T04:35:05.693Z,8.62
2019-03-15T04:36:05.915Z,8.69
2019-03-15T04:37:05.608Z,8.69
2019-03-15T04:38:05.291Z,8.62
2019-03-15T04:39:05.597Z,8.62
2019-03-15T04:40:05.290Z,8.62
2019-03-15T04:41:05.366Z,8.56
2019-03-15T04:42:05.452Z,8.44
2019-03-15T04:43:05.702Z,8.50
2019-03-15T04:44:05.129Z,8.44
2019-03-15T04:45:05.518Z,8.44
2019-03-15T04:46:05.052Z,8.50
2019-03-15T04:47:05.529Z,8.50
2019-03-15T04:48:05.787Z,8.44
2019-03-15T04:49:05.294Z,8.44
2019-03-15T04:50:05.299Z,8.44
2019-03-15T04:51:05.694Z,8.44
2019-03-15T04:52:05.052Z,8.50
2019-03-15T04:53:05.585Z,8.50
2019-03-15T04:54:05.745Z,8.50
2019-03-15T04:55:05.509Z,8.50
2019-03-15T04:56:05.721Z,8.50
2019-03-15T04:57:05.816Z,8.44
2019-03-15T04:58:05.302Z,8.50
2019-03-15T04:59:05.269Z,8.50
2019-03-15T05:00:05.445Z,8.56
2019-03-15T05:01:05.130Z,8.62
2019-03-15T05:02:05.558Z,8.56
2019-03-15T05:03:05.529Z,8.62
2019-03-15T05:04:05.309Z,8.62
2019-03-15T05:05:05.687Z,8.56
2019-03-15T05:06:05.452Z,8.56
2019-03-15T05:07:05.751Z,8.56
2019-03-15T05:08:05.455Z,8.62
2019-03-15T05:09:05.271Z,8.69
2019-03-15T05:10:05.127Z,8.88
2019-03-15T05:11:05.930Z,8.88
2019-03-15T05:12:05.138Z,8.81
2019-03-15T05:13:05.349Z,8.81
2019-03-15T05:14:05.547Z,8.69
2019-03-15T05:15:05.423Z,8.56
2019-03-15T05:16:05.866Z,8.50
2019-03-15T05:17:05.911Z,8.44
2019-03-15T05:18:06.101Z,8.38
2019-03-15T05:19:05.501Z,8.31
2019-03-15T05:20:05.104Z,8.12
2019-03-15T05:21:05.357Z,8.00
2019-03-15T05:22:06.289Z,7.81
2019-03-15T05:23:05.989Z,7.69
2019-03-15T05:24:05.448Z,7.56
2019-03-15T05:25:06.379Z,7.44
2019-03-15T05:26:05.607Z,7.38
2019-03-15T05:27:05.915Z,7.31
2019-03-15T05:28:05.682Z,7.25
2019-03-15T05:29:05.054Z,7.19
2019-03-15T05:30:05.378Z,7.25
2019-03-15T05:31:05.400Z,7.19
2019-03-15T05:32:05.773Z,7.31
2019-03-15T05:33:05.434Z,7.31
2019-03-15T05:34:05.458Z,7.19
2019-03-15T05:35:05.287Z,7.12
2019-03-15T05:36:05.696Z,7.00
2019-03-15T05:37:05.772Z,6.94
2019-03-15T05:38:06.089Z,6.88
2019-03-15T05:39:05.507Z,6.81
2019-03-15T05:40:05.041Z,6.75
2019-03-15T05:41:05.276Z,6.75
2019-03-15T05:42:05.701Z,6.69
2019-03-15T05:43:05.792Z,6.62
2019-03-15T05:44:05.450Z,6.69
2019-03-15T05:45:05.112Z,6.69
2019-03-15T05:46:05.291Z,6.62
2019-03-15T05:47:05.850Z,6.56
2019-03-15T05:48:05.957Z,6.62
2019-03-15T05:49:05.573Z,6.56
2019-03-15T05:50:05.847Z,6.62
2019-03-15T05:51:05.627Z,6.62
2019-03-15T05:52:05.853Z,6.56
2019-03-15T05:53:06.104Z,6.56
2019-03-15T05:54:05.209Z,6.50
2019-03-15T05:55:05.198Z,6.50
2019-03-15T05:56:05.291Z,6.44
2019-03-15T05:57:05.765Z,6.44
2019-03-15T05:58:05.460Z,6.44
2019-03-15T05:59:06.170Z,6.62
2019-03-15T06:00:05.219Z,6.69
2019-03-15T06:01:05.959Z,6.69
2019-03-15T06:02:06.089Z,6.62
2019-03-15T06:03:05.123Z,6.56
2019-03-15T06:04:05.837Z,6.56
2019-03-15T06:05:05.446Z,6.50
2019-03-15T06:06:05.539Z,6.44
2019-03-15T06:07:05.714Z,6.56
2019-03-15T06:08:05.855Z,6.62
2019-03-15T06:09:05.523Z,6.62
2019-03-15T06:10:06.019Z,6.62
2019-03-15T06:11:05.683Z,6.56
2019-03-15T06:12:05.126Z,6.56
2019-03-15T06:13:05.433Z,6.62
2019-03-15T06:14:06.030Z,6.56
2019-03-15T06:15:05.695Z,6.62
2019-03-15T06:16:05.773Z,6.62
2019-03-15T06:17:05.379Z,7.00
2019-03-15T06:18:06.727Z,7.25
2019-03-15T06:19:05.518Z,7.56
2019-03-15T06:20:06.452Z,7.69
2019-03-15T06:21:05.222Z,7.62
2019-03-15T06:22:05.369Z,7.69
2019-03-15T06:23:05.510Z,7.69
2019-03-15T06:24:05.689Z,7.62
2019-03-15T06:25:05.951Z,7.94
2019-03-15T06:26:05.349Z,7.81
2019-03-15T06:27:05.776Z,7.75
2019-03-15T06:28:05.925Z,7.75
2019-03-15T06:29:06.180Z,7.75
2019-03-15T06:30:05.702Z,7.69
2019-03-15T06:31:05.997Z,7.56
2019-03-15T06:32:05.528Z,7.44
2019-03-15T06:33:05.660Z,7.31
2019-03-15T06:34:05.367Z,7.19
2019-03-15T06:35:05.921Z,7.19
2019-03-15T06:36:05.201Z,7.25
2019-03-15T06:37:05.534Z,7.31
2019-03-15T06:38:05.144Z,7.44
2019-03-15T06:39:05.472Z,7.44
2019-03-15T06:40:05.611Z,7.38
2019-03-15T06:41:05.693Z,7.25
2019-03-15T06:42:06.013Z,7.19
2019-03-15T06:43:05.112Z,7.12
2019-03-15T06:44:05.610Z,7.06
2019-03-15T06:45:06.008Z,7.06
2019-03-15T06:46:05.287Z,7.19
2019-03-15T06:47:05.697Z,7.31
2019-03-15T06:48:05.121Z,7.38
2019-03-15T06:49:05.684Z,7.31
2019-03-15T06:50:05.215Z,7.25
2019-03-15T06:51:09.035Z,7.19
2019-03-15T06:52:06.098Z,7.12
2019-03-15T06:53:05.526Z,7.06
2019-03-15T06:54:11.125Z,7.25
2019-03-15T06:55:05.660Z,7.44
2019-03-15T06:56:05.223Z,7.50
2019-03-15T06:57:06.509Z,7.56
2019-03-15T06:58:05.690Z,7.50
2019-03-15T06:59:05.050Z,7.38
2019-03-15T07:00:05.621Z,7.31
2019-03-15T07:01:05.781Z,7.25
2019-03-15T07:02:05.850Z,7.25
2019-03-15T07:03:06.171Z,7.31
2019-03-15T07:04:05.597Z,7.25
2019-03-15T07:05:06.098Z,7.19
2019-03-15T07:06:05.912Z,7.25
2019-03-15T07:07:05.511Z,7.44
2019-03-15T07:08:05.602Z,7.38
2019-03-15T07:09:05.926Z,7.50
2019-03-15T07:10:06.255Z,7.62
2019-03-15T07:11:05.774Z,7.75
2019-03-15T07:12:09.498Z,7.75
2019-03-15T07:13:05.367Z,7.75
2019-03-15T07:14:06.078Z,7.69
2019-03-15T07:15:05.121Z,7.62
2019-03-15T07:16:05.274Z,7.62
2019-03-15T07:17:05.846Z,7.69
2019-03-15T07:18:06.569Z,7.75
2019-03-15T07:19:05.922Z,7.62
2019-03-15T07:20:05.506Z,7.56
2019-03-15T07:21:06.101Z,7.50
2019-03-15T07:22:06.000Z,7.50
2019-03-15T07:23:05.526Z,7.50
2019-03-15T07:24:05.099Z,7.50
2019-03-15T07:25:05.632Z,7.44
2019-03-15T07:26:05.839Z,7.44
2019-03-15T07:27:12.476Z,7.44
2019-03-15T07:28:05.990Z,7.38
2019-03-15T07:29:05.776Z,7.38
2019-03-15T07:30:05.917Z,7.44
2019-03-15T07:31:05.515Z,7.44
2019-03-15T07:32:06.001Z,7.50
2019-03-15T07:33:05.681Z,7.50
2019-03-15T07:34:05.207Z,7.56
2019-03-15T07:35:05.363Z,7.56
2019-03-15T07:36:05.444Z,7.50
2019-03-15T07:37:05.227Z,7.50
2019-03-15T07:38:05.188Z,7.50
2019-03-15T07:39:05.838Z,7.50
2019-03-15T07:40:05.447Z,7.50
2019-03-15T07:41:05.457Z,7.50
2019-03-15T07:42:05.727Z,7.50
2019-03-15T07:43:05.844Z,7.50
2019-03-15T07:44:06.001Z,7.62
2019-03-15T07:45:05.699Z,7.81
2019-03-15T07:46:06.417Z,7.81
2019-03-15T07:47:05.204Z,8.19
2019-03-15T07:48:05.434Z,8.50
2019-03-15T07:49:05.603Z,9.00
2019-03-15T07:50:05.200Z,8.75
2019-03-15T07:51:05.377Z,8.56
2019-03-15T07:52:05.924Z,8.50
2019-03-15T07:53:05.290Z,8.44
2019-03-15T07:54:05.662Z,8.31
2019-03-15T07:55:05.375Z,8.50
2019-03-15T07:56:05.393Z,8.38
2019-03-15T07:57:05.606Z,8.31
2019-03-15T07:58:05.216Z,8.25
2019-03-15T07:59:05.923Z,8.19
2019-03-15T08:00:05.056Z,8.12
2019-03-15T08:01:05.601Z,8.12
2019-03-15T08:02:05.841Z,8.06
2019-03-15T08:03:05.476Z,8.00
2019-03-15T08:04:16.121Z,8.00
2019-03-15T08:05:05.954Z,8.00
2019-03-15T08:06:06.000Z,8.00
2019-03-15T08:07:05.565Z,8.00
2019-03-15T08:08:06.101Z,8.00
2019-03-15T08:09:05.114Z,8.00
2019-03-15T08:10:05.704Z,8.12
2019-03-15T08:11:05.768Z,8.19
2019-03-15T08:12:05.372Z,8.19
2019-03-15T08:13:06.109Z,8.19
2019-03-15T08:14:05.290Z,8.19
2019-03-15T08:15:05.660Z,8.19
2019-03-15T08:16:05.586Z,8.19
2019-03-15T08:17:05.539Z,8.12
2019-03-15T08:18:06.253Z,8.12
2019-03-15T08:19:05.387Z,8.25
2019-03-15T08:20:05.759Z,8.38
2019-03-15T08:21:05.447Z,8.69
2019-03-15T08:22:05.204Z,8.56
2019-03-15T08:23:08.251Z,8.50
2019-03-15T08:24:05.451Z,8.44
2019-03-15T08:25:05.452Z,8.38
2019-03-15T08:26:05.210Z,8.38
2019-03-15T08:27:05.364Z,8.31
2019-03-15T08:28:05.692Z,8.31
2019-03-15T08:29:05.619Z,8.31
2019-03-15T08:30:05.279Z,8.31
2019-03-15T08:31:05.633Z,8.25
2019-03-15T08:32:05.509Z,8.25
2019-03-15T08:33:09.399Z,8.25
2019-03-15T08:34:05.602Z,8.25
2019-03-15T08:35:06.125Z,8.25
2019-03-15T08:36:05.027Z,8.25
2019-03-15T08:37:05.678Z,8.25
2019-03-15T08:38:05.833Z,8.25
2019-03-15T08:39:05.206Z,8.25
2019-03-15T08:40:05.689Z,8.25
2019-03-15T08:41:05.365Z,8.25
2019-03-15T08:42:05.931Z,8.25
2019-03-15T08:43:06.102Z,8.25
2019-03-15T08:44:06.012Z,8.25
2019-03-15T08:45:05.208Z,8.25
2019-03-15T08:46:05.199Z,8.25
2019-03-15T08:47:06.025Z,8.25
2019-03-15T08:48:05.917Z,8.25
2019-03-15T08:49:05.370Z,8.31
2019-03-15T08:50:05.926Z,8.31
2019-03-15T08:51:06.100Z,8.31
2019-03-15T08:52:05.198Z,8.38
2019-03-15T08:53:05.288Z,8.38
2019-03-15T08:54:05.674Z,8.38
2019-03-15T08:55:05.907Z,8.38
2019-03-15T08:56:05.609Z,8.31
2019-03-15T08:57:05.682Z,8.38
2019-03-15T08:58:13.650Z,8.31
2019-03-15T08:59:05.852Z,8.38
2019-03-15T09:00:05.200Z,8.38
2019-03-15T09:01:05.366Z,8.31
2019-03-15T09:02:05.532Z,8.38
2019-03-15T09:03:05.992Z,8.50
2019-03-15T09:04:05.623Z,8.69
2019-03-15T09:05:05.791Z,8.69
2019-03-15T09:06:05.932Z,8.69
2019-03-15T09:07:05.450Z,8.62
2019-03-15T09:08:05.516Z,8.62
2019-03-15T09:09:05.531Z,8.62
2019-03-15T09:10:05.206Z,8.62
2019-03-15T09:11:05.206Z,8.56
2019-03-15T09:12:05.789Z,8.62
2019-03-15T09:13:06.024Z,8.56
2019-03-15T09:14:05.283Z,8.56
2019-03-15T09:15:05.463Z,8.56
2019-03-15T09:16:05.845Z,8.56
2019-03-15T09:17:05.144Z,8.56
2019-03-15T09:18:05.521Z,8.50
2019-03-15T09:19:06.560Z,8.50
2019-03-15T09:20:05.528Z,8.50
2019-03-15T09:21:05.250Z,8.50
2019-03-15T09:22:05.277Z,8.50
2019-03-15T09:23:05.757Z,8.50
2019-03-15T09:24:05.131Z,8.44
2019-03-15T09:25:17.995Z,8.44
2019-03-15T09:26:05.915Z,8.44
2019-03-15T09:27:05.367Z,8.50
2019-03-15T09:28:05.917Z,8.44
2019-03-15T09:29:05.608Z,8.44
2019-03-15T09:30:05.237Z,8.44
2019-03-15T09:31:07.500Z,8.44
2019-03-15T09:32:08.792Z,8.44
2019-03-15T09:33:05.847Z,8.44
2019-03-15T09:34:05.935Z,8.44
2019-03-15T09:35:05.991Z,8.44
2019-03-15T09:36:05.541Z,8.44
2019-03-15T09:37:05.778Z,8.38
2019-03-15T09:38:05.856Z,8.44
2019-03-15T09:39:06.010Z,8.44
2019-03-15T09:40:05.454Z,8.44
2019-03-15T09:41:05.849Z,8.44
2019-03-15T09:42:05.446Z,8.38
2019-03-15T09:43:05.769Z,8.38
2019-03-15T09:44:05.130Z,8.38
2019-03-15T09:45:05.513Z,8.38
2019-03-15T09:46:05.310Z,8.38
2019-03-15T09:47:05.363Z,8.38
2019-03-15T09:48:05.930Z,8.38
2019-03-15T09:49:05.618Z,8.38
2019-03-15T09:50:06.086Z,8.38
2019-03-15T09:51:05.110Z,8.38
2019-03-15T09:52:05.597Z,8.38
2019-03-15T09:53:06.330Z,8.38
2019-03-15T09:54:05.685Z,8.31
2019-03-15T09:55:05.775Z,8.38
2019-03-15T09:56:05.171Z,8.31
2019-03-15T09:57:05.144Z,8.31
2019-03-15T09:58:05.851Z,8.31
2019-03-15T09:59:05.198Z,8.31
2019-03-15T10:00:05.296Z,8.31
2019-03-15T10:01:05.735Z,8.31
2019-03-15T10:02:07.775Z,8.31
2019-03-15T10:03:05.602Z,8.31
2019-03-15T10:04:05.806Z,8.31
2019-03-15T10:05:10.444Z,8.31
2019-03-15T10:06:14.598Z,8.31
2019-03-15T10:07:05.552Z,8.31
2019-03-15T10:08:05.860Z,8.31
2019-03-15T10:09:05.368Z,8.31
2019-03-15T10:10:13.180Z,8.38
2019-03-15T10:11:05.042Z,8.38
2019-03-15T10:12:05.307Z,8.38
2019-03-15T10:13:06.330Z,8.38
2019-03-15T10:14:06.184Z,8.38
2019-03-15T10:15:07.758Z,8.44
2019-03-15T10:16:05.665Z,8.44
2019-03-15T10:17:05.912Z,8.44
2019-03-15T10:18:05.034Z,8.44
2019-03-15T10:19:05.353Z,8.44
2019-03-15T10:20:05.543Z,8.50
2019-03-15T10:21:05.206Z,8.50
2019-03-15T10:22:05.622Z,8.50
2019-03-15T10:23:06.398Z,8.50
2019-03-15T10:24:05.302Z,8.50
2019-03-15T10:25:05.200Z,8.50
2019-03-15T10:26:05.998Z,8.56
2019-03-15T10:27:05.430Z,8.56
2019-03-15T10:28:05.462Z,8.56
2019-03-15T10:29:14.995Z,8.56
2019-03-15T10:30:05.682Z,8.62
2019-03-15T10:31:05.857Z,8.62
2019-03-15T10:32:05.127Z,8.62
2019-03-15T10:33:05.434Z,8.62
2019-03-15T10:34:05.942Z,8.69
2019-03-15T10:35:05.535Z,8.69
2019-03-15T10:36:05.748Z,8.69
2019-03-15T10:37:06.369Z,8.69
2019-03-15T10:38:06.010Z,8.69
2019-03-15T10:39:05.108Z,8.69
2019-03-15T10:40:05.137Z,8.69
2019-03-15T10:41:05.211Z,8.75
2019-03-15T10:42:05.764Z,8.75
2019-03-15T10:43:05.442Z,8.75
2019-03-15T10:44:06.004Z,8.75
2019-03-15T10:45:05.246Z,8.75
2019-03-15T10:46:08.276Z,8.75
2019-03-15T10:47:05.926Z,8.75
2019-03-15T10:48:07.902Z,8.75
2019-03-15T10:49:05.767Z,8.75
2019-03-15T10:50:05.838Z,8.75
2019-03-15T10:51:06.172Z,8.75
2019-03-15T10:52:05.531Z,8.75
2019-03-15T10:53:05.509Z,8.75
2019-03-15T10:54:05.215Z,8.81
2019-03-15T10:55:05.728Z,8.81
2019-03-15T10:56:05.867Z,8.81
2019-03-15T10:57:05.924Z,8.81
2019-03-15T10:58:06.076Z,8.88
2019-03-15T10:59:05.688Z,8.88
2019-03-15T11:00:06.018Z,8.88
2019-03-15T11:01:05.529Z,8.88
2019-03-15T11:02:05.693Z,8.94
2019-03-15T11:03:05.763Z,8.94
2019-03-15T11:04:05.933Z,9.00
2019-03-15T11:05:05.999Z,9.12
2019-03-15T11:06:05.138Z,9.19
2019-03-15T11:07:06.022Z,9.38
2019-03-15T11:08:05.529Z,9.44
2019-03-15T11:09:05.443Z,9.62
2019-03-15T11:10:05.613Z,9.69
2019-03-15T11:11:06.012Z,9.75
2019-03-15T11:12:05.155Z,10.00
2019-03-15T11:13:05.469Z,10.19
2019-03-15T11:14:05.483Z,10.31
2019-03-15T11:15:05.506Z,10.38
2019-03-15T11:16:05.240Z,10.25
2019-03-15T11:17:05.214Z,10.12
2019-03-15T11:18:05.393Z,10.06
2019-03-15T11:19:05.441Z,10.00
2019-03-15T11:20:05.934Z,9.94
2019-03-15T11:21:05.761Z,9.88
2019-03-15T11:22:05.454Z,9.81
2019-03-15T11:23:05.948Z,10.00
2019-03-15T11:24:05.186Z,10.06
2019-03-15T11:25:05.459Z,10.19
2019-03-15T11:26:13.275Z,10.25
2019-03-15T11:27:05.623Z,10.31
2019-03-15T11:28:05.848Z,10.38
2019-03-15T11:29:05.211Z,10.50
2019-03-15T11:30:05.914Z,10.38
2019-03-15T11:31:05.224Z,10.25
2019-03-15T11:32:05.942Z,10.19
2019-03-15T11:33:05.288Z,10.06
2019-03-15T11:34:05.517Z,10.00
2019-03-15T11:35:05.921Z,10.00
2019-03-15T11:36:05.607Z,9.94
2019-03-15T11:37:05.931Z,9.94
2019-03-15T11:38:06.869Z,9.88
2019-03-15T11:39:05.215Z,9.88
2019-03-15T11:40:05.375Z,9.81
2019-03-15T11:41:05.689Z,9.81
2019-03-15T11:42:05.113Z,9.81
2019-03-15T11:43:05.371Z,9.81
2019-03-15T11:44:05.627Z,9.81
2019-03-15T11:45:05.683Z,9.81
2019-03-15T11:46:05.121Z,9.81
2019-03-15T11:47:05.472Z,9.75
2019-03-15T11:48:08.741Z,9.75
2019-03-15T11:49:05.607Z,9.75
2019-03-15T11:50:05.053Z,9.75
2019-03-15T11:51:05.692Z,9.75
2019-03-15T11:52:05.128Z,9.75
2019-03-15T11:53:05.211Z,9.75
2019-03-15T11:54:05.535Z,9.69
2019-03-15T11:55:06.086Z,9.69
2019-03-15T11:56:05.211Z,9.69
2019-03-15T11:57:05.860Z,9.69
2019-03-15T11:58:05.194Z,9.69
2019-03-15T11:59:05.370Z,9.69
2019-03-15T12:00:05.692Z,9.69
2019-03-15T12:01:05.037Z,9.69
2019-03-15T12:02:05.143Z,9.69
2019-03-15T12:03:05.056Z,9.62
2019-03-15T12:04:05.459Z,9.62
2019-03-15T12:05:05.517Z,9.62
2019-03-15T12:06:05.132Z,9.62
2019-03-15T12:07:05.475Z,9.62
2019-03-15T12:08:05.701Z,9.62
2019-03-15T12:09:05.541Z,9.62
2019-03-15T12:10:05.536Z,9.62
2019-03-15T12:11:05.606Z,9.62
2019-03-15T12:12:05.207Z,9.62
2019-03-15T12:13:05.347Z,9.62
2019-03-15T12:14:05.461Z,9.62
2019-03-15T12:15:05.699Z,9.56
2019-03-15T12:16:05.783Z,9.56
2019-03-15T12:17:05.928Z,9.56
2019-03-15T12:18:08.278Z,9.56
2019-03-15T12:19:05.062Z,9.50
2019-03-15T12:20:05.386Z,9.50
2019-03-15T12:21:06.027Z,9.50
2019-03-15T12:22:06.738Z,9.50
2019-03-15T12:23:05.116Z,9.50
2019-03-15T12:24:05.206Z,9.50
2019-03-15T12:25:05.878Z,9.44
2019-03-15T12:26:06.037Z,9.44
2019-03-15T12:27:06.204Z,9.44
2019-03-15T12:28:05.126Z,9.44
2019-03-15T12:29:05.762Z,9.38
2019-03-15T12:30:05.225Z,9.38
2019-03-15T12:31:05.230Z,9.38
2019-03-15T12:32:05.373Z,9.38
2019-03-15T12:33:06.714Z,9.38
2019-03-15T12:34:05.387Z,9.38
2019-03-15T12:35:05.433Z,9.62
2019-03-15T12:36:05.510Z,9.69
2019-03-15T12:37:05.754Z,9.62
2019-03-15T12:38:05.127Z,9.56
2019-03-15T12:39:05.861Z,9.56
2019-03-15T12:40:06.194Z,9.50
2019-03-15T12:41:05.116Z,9.44
2019-03-15T12:42:05.627Z,9.44
2019-03-15T12:43:05.605Z,9.44
2019-03-15T12:44:05.061Z,9.38
2019-03-15T12:45:05.907Z,9.38
2019-03-15T12:46:05.450Z,9.38
2019-03-15T12:47:06.267Z,9.31
2019-03-15T12:48:06.106Z,9.31
2019-03-15T12:49:06.006Z,9.31
2019-03-15T12:50:05.127Z,9.31
2019-03-15T12:51:05.529Z,9.31
2019-03-15T12:52:05.614Z,9.31
2019-03-15T12:53:05.597Z,9.31
2019-03-15T12:54:05.302Z,9.31
2019-03-15T12:55:05.368Z,9.31
2019-03-15T12:56:05.620Z,9.25
2019-03-15T12:57:05.503Z,9.25
2019-03-15T12:58:06.011Z,9.31
2019-03-15T12:59:05.189Z,9.31
2019-03-15T13:00:05.392Z,9.31
2019-03-15T13:01:05.352Z,9.31
2019-03-15T13:02:05.525Z,9.31
2019-03-15T13:03:05.780Z,9.31
2019-03-15T13:04:05.113Z,9.31
2019-03-15T13:05:05.275Z,9.31
2019-03-15T13:06:05.446Z,9.31
2019-03-15T13:07:05.931Z,9.31
2019-03-15T13:08:06.006Z,9.31
2019-03-15T13:09:05.121Z,9.38
2019-03-15T13:10:05.529Z,9.38
2019-03-15T13:11:05.689Z,9.38
2019-03-15T13:12:05.048Z,9.38
2019-03-15T13:13:05.606Z,9.31
2019-03-15T13:14:06.191Z,9.38
2019-03-15T13:15:05.204Z,9.38
2019-03-15T13:16:05.124Z,9.38
2019-03-15T13:17:05.461Z,9.38